Aircraft
UPR1019 PT-QAE TBM 850
CYQT
Thunder Bay Airport
CYTS
Timmins/Victor M. Power
Pilot:: Rafael
Aircraft:: Black Square TBM 850 Orange
Alternate: CYVO
Network: ivao
FLIGHT DETAILS
Distance: 317nm Duration 01h 16m
Cruise Speed: Flight Level: 19000
Validation: Pending Validation Type Charter
Flight Fuel
ZFW: 2474
Block Fuel/Initial FOB: 557
Flight Fuel: 247
Cargo
Passengers: 3
Cargo: 51
ROUTE
ROUTE: BILII
REMARKS:
DATE
Date: 26-09-05
Departure Time: 2012
Cargo: 51
FLIGHT DETAILS
Crashed: No
Validator Comments:
Flight Rating: 96
LANDING ANALYSIS
Landing wind: 39º/4 kt
Landing heading: 34º
Landing VS:: -123 ft/min
Landing IAS:: 75 kt
Landing Force G: 1.1 G
Landing Bank: 1
Landing Pitch: -3
Landing Flaps: 100
Navigation Lights: OFF
Landing Lights: ON
Beacon Lights: OFF
Strobe Lights: ON
viserfly

ALTITUDE CHART

viserfly

MAIN EVENTS

DATE EVENT IAS ALTITUDE
2026-09-05 19:59:59 FLYacars version 1.3.6 11 647
2026-09-05 19:59:59 Starting Engine 1 10 647
2026-09-05 20:02:07 Aircraft boarding in progress 11 647
2026-09-05 20:02:07 Navigation Lights ON 11 647
2026-09-05 20:02:19 Engine 1 shutdown 11 647
2026-09-05 20:02:19 Starting Engine 1 11 647
2026-09-05 20:02:19 Engine 1 shutdown 11 647
2026-09-05 20:02:19 Starting Engine 1 11 647
2026-09-05 20:02:59 Taxi Lights ON 9 647
2026-09-05 20:05:02 FLAPS 50% 8 647
2026-09-05 20:08:41 Aircraft taxiing to runway 18 647
2026-09-05 20:10:02 Taxi speed above 25kt 20 646
2026-09-05 20:10:10 Strobe Lights ON 4 647
2026-09-05 20:10:15 Landing Lights ON 3 647
2026-09-05 20:12:18 Detected Take-off roll, HDG 113, IAS 94kt, GS 95kt, G-force 1.0g, Pitch -3.6deg, Bank 3.1deg, Wind 169/07kt, Temp 23°C 94 643
2026-09-05 20:12:18 Airborne 94 643
2026-09-05 20:12:18 Beacon lights OFF and engines ON 94 643
2026-09-05 20:12:20 Gear UP, IAS 102kt, GS 101kt, ALT 15ft AGL 102 653
2026-09-05 20:13:30 Landing Lights OFF 136 2445
2026-09-05 20:13:30 Landing lights OFF below 10000fts 136 2445
2026-09-05 20:13:30 Takeoff and lights OFF 136 2445
2026-09-05 20:13:37 Landing Lights ON 137 2659
2026-09-05 20:13:37 FLAPS 0% 137kt, ALT 2666ft 137 2666
2026-09-05 20:18:00 Landing lights ON above 10000fts 136 11002
2026-09-05 20:18:06 Landing Lights OFF 137 11166
2026-09-05 20:18:06 Taxi Lights OFF 137 11166
2026-09-05 20:23:39 Aircraft on Top Of Climb at 19366ft, IAS 140kt, GS 195kt, HDG 38deg, TAT -10deg, WIND 316/27kt 140 19366
2026-09-05 21:17:04 Aircraft on Top Of Descent at 18499ft, IAS 235kt, GS 326kt, HDG 106deg, TAT -12deg, WIND 346/18kt 235 18499
2026-09-05 21:20:30 Taxi Lights ON 232 9971
2026-09-05 21:20:31 Landing Lights ON 232 9931
2026-09-05 21:23:49 Gear DOWN, IAS 173kt, GS 179kt, ALT 1831ft AGL 173 2787
2026-09-05 21:23:53 FLAPS 50% 173kt, ALT 2785ft 173 2785
2026-09-05 21:25:35 FLAPS 100% 125kt, ALT 2743ft 125 2743
2026-09-05 21:28:24 Landed at destination with a landing rate of -123fpm, G-force 1.1g, Pitch -3.1deg, Bank 0.7deg, HDG 34deg, IAS 75kt, GS 75kt, Wind 039/04kt, Temp 21°C 75 967
2026-09-05 21:28:41 Aircraft taxiing to apron 28 970
2026-09-05 21:28:49 FLAPS 50% 14 970
2026-09-05 21:28:49 FLAPS 0% 13 970
2026-09-05 21:29:03 Strobe Lights OFF 19 969
2026-09-05 21:29:04 Landing Lights OFF 18 969
2026-09-05 21:30:48 Taxi Lights OFF 4 969
2026-09-05 21:30:51 Navigation Lights OFF 4 969
2026-09-05 21:32:40 Aircraft at gate/stand, ground services are moving into position, disembarkation has begun. Remaining FOB 310kg FLYacars v1.3.6 3 969
viserfly

ACARS DATA

DATE IAS GS ALTITUDE FUEL CONSUMED OAT FLIGHT STATUS
2026-09-05 20:00:29 11 0 647 0 23 BOARDING
2026-09-05 20:00:59 11 0 647 0 23 BOARDING
2026-09-05 20:01:29 11 0 647 0 23 BOARDING
2026-09-05 20:01:59 8 0 647 0 23 BOARDING
2026-09-05 20:02:29 12 0 647 0 23 BOARDING
2026-09-05 20:02:59 9 0 647 0 23 BOARDING
2026-09-05 20:03:29 9 0 647 1 23 BOARDING
2026-09-05 20:03:59 8 0 647 2 23 BOARDING
2026-09-05 20:04:29 9 0 647 2 23 BOARDING
2026-09-05 20:04:59 8 0 647 3 23 BOARDING
2026-09-05 20:05:29 11 0 647 4 23 BOARDING
2026-09-05 20:05:59 8 0 647 4 23 BOARDING
2026-09-05 20:06:29 11 0 647 5 23 BOARDING
2026-09-05 20:06:59 8 0 647 6 23 BOARDING
2026-09-05 20:07:29 10 0 647 7 23 BOARDING
2026-09-05 20:07:59 11 0 647 7 23 BOARDING
2026-09-05 20:08:29 12 0 647 8 23 BOARDING
2026-09-05 20:08:59 25 19 647 9 23 TAXI TO RUNWAY
2026-09-05 20:09:29 12 13 646 10 23 TAXI TO RUNWAY
2026-09-05 20:09:59 11 13 646 10 23 TAXI TO RUNWAY
2026-09-05 20:10:29 15 27 649 11 23 TAXI TO RUNWAY
2026-09-05 20:10:59 13 0 649 12 23 TAXI TO RUNWAY
2026-09-05 20:11:29 10 0 649 13 23 TAXI TO RUNWAY
2026-09-05 20:11:59 34 28 649 14 23 TAXI TO RUNWAY
2026-09-05 20:12:29 91 92 927 15 23 TAKEOFF
2026-09-05 20:12:59 122 122 1601 17 20 TAKEOFF
2026-09-05 20:13:29 135 143 2413 19 16 INITIAL CLIMB
2026-09-05 20:13:59 137 147 3353 21 14 CLIMB
2026-09-05 20:14:29 137 149 4322 22 12 CLIMB
2026-09-05 20:14:59 137 150 5301 24 11 CLIMB
2026-09-05 20:15:29 137 154 6231 26 10 CLIMB
2026-09-05 20:15:59 138 156 7181 27 10 CLIMB
2026-09-05 20:16:29 137 155 8187 29 8 CLIMB
2026-09-05 20:16:59 137 156 9142 31 7 CLIMB
2026-09-05 20:17:29 137 155 10054 32 7 CLIMB
2026-09-05 20:17:59 136 161 10967 34 5 CLIMB
2026-09-05 20:18:29 137 164 11833 36 3 CLIMB
2026-09-05 20:18:59 137 165 12678 37 2 CLIMB
2026-09-05 20:19:29 137 168 13487 39 1 CLIMB
2026-09-05 20:19:59 137 169 14288 40 0 CLIMB
2026-09-05 20:20:29 137 173 15020 42 -1 CLIMB
2026-09-05 20:20:59 137 175 15771 43 -3 CLIMB
2026-09-05 20:21:29 137 178 16489 45 -4 CLIMB
2026-09-05 20:21:59 137 181 17210 47 -6 CLIMB
2026-09-05 20:22:29 137 184 17889 48 -7 CLIMB
2026-09-05 20:22:59 137 186 18562 50 -8 CLIMB
2026-09-05 20:23:29 137 189 19219 51 -10 CLIMB
2026-09-05 20:23:59 155 215 19451 53 -10 CLIMB
2026-09-05 20:24:29 172 240 19565 54 -11 ENROUTE
2026-09-05 20:24:59 188 261 19563 56 -11 ENROUTE
2026-09-05 20:25:29 199 274 19552 58 -11 ENROUTE
2026-09-05 20:25:59 204 281 19551 59 -11 ENROUTE
2026-09-05 20:26:29 206 285 19553 61 -11 ENROUTE
2026-09-05 20:26:59 208 288 19552 62 -11 ENROUTE
2026-09-05 20:27:29 210 290 19551 64 -11 ENROUTE
2026-09-05 20:27:59 211 291 19552 65 -11 ENROUTE
2026-09-05 20:28:29 211 292 19550 67 -11 ENROUTE
2026-09-05 20:28:59 211 292 19550 68 -11 ENROUTE
2026-09-05 20:29:29 212 293 19552 70 -11 ENROUTE
2026-09-05 20:29:59 212 303 19537 72 -11 ENROUTE
2026-09-05 20:30:29 213 313 19525 73 -11 ENROUTE
2026-09-05 20:30:59 212 312 19528 75 -11 ENROUTE
2026-09-05 20:31:29 212 312 19530 76 -11 ENROUTE
2026-09-05 20:31:59 212 312 19529 78 -11 ENROUTE
2026-09-05 20:32:29 213 313 19531 79 -11 ENROUTE
2026-09-05 20:32:59 213 313 19529 81 -11 ENROUTE
2026-09-05 20:33:29 213 312 19530 82 -11 ENROUTE
2026-09-05 20:33:59 213 312 19525 84 -11 ENROUTE
2026-09-05 20:34:29 213 311 19524 85 -11 ENROUTE
2026-09-05 20:34:59 212 311 19523 87 -11 ENROUTE
2026-09-05 20:35:29 212 311 19524 89 -11 ENROUTE
2026-09-05 20:35:59 212 310 19521 90 -11 ENROUTE
2026-09-05 20:36:29 212 310 19521 92 -11 ENROUTE
2026-09-05 20:36:59 213 311 19509 93 -11 ENROUTE
2026-09-05 20:37:29 213 310 19509 95 -11 ENROUTE
2026-09-05 20:37:59 212 309 19509 96 -11 ENROUTE
2026-09-05 20:38:29 212 309 19507 98 -11 ENROUTE
2026-09-05 20:38:59 212 309 19508 99 -11 ENROUTE
2026-09-05 20:39:29 212 309 19508 101 -11 ENROUTE
2026-09-05 20:39:59 212 309 19507 103 -11 ENROUTE
2026-09-05 20:40:29 213 309 19497 104 -11 ENROUTE
2026-09-05 20:40:59 213 309 19498 106 -11 ENROUTE
2026-09-05 20:41:29 213 309 19497 107 -11 ENROUTE
2026-09-05 20:41:59 212 309 19496 109 -11 ENROUTE
2026-09-05 20:42:29 212 309 19496 110 -11 ENROUTE
2026-09-05 20:42:59 212 309 19496 112 -11 ENROUTE
2026-09-05 20:43:29 212 309 19496 113 -11 ENROUTE
2026-09-05 20:43:59 214 309 19480 115 -11 ENROUTE
2026-09-05 20:44:29 213 308 19480 117 -11 ENROUTE
2026-09-05 20:44:59 213 308 19479 118 -11 ENROUTE
2026-09-05 20:45:29 213 308 19480 120 -11 ENROUTE
2026-09-05 20:45:59 213 308 19479 121 -11 ENROUTE
2026-09-05 20:46:29 213 308 19478 123 -11 ENROUTE
2026-09-05 20:46:59 214 308 19473 124 -12 ENROUTE
2026-09-05 20:47:29 213 307 19473 126 -12 ENROUTE
2026-09-05 20:47:59 213 307 19473 127 -12 ENROUTE
2026-09-05 20:48:29 213 307 19472 129 -12 ENROUTE
2026-09-05 20:48:59 213 307 19472 130 -12 ENROUTE
2026-09-05 20:49:29 213 308 19473 132 -12 ENROUTE
2026-09-05 20:49:59 213 307 19472 134 -12 ENROUTE
2026-09-05 20:50:29 214 308 19457 135 -12 ENROUTE
2026-09-05 20:50:59 213 307 19457 137 -12 ENROUTE
2026-09-05 20:51:29 213 307 19457 138 -12 ENROUTE
2026-09-05 20:51:59 213 307 19457 140 -12 ENROUTE
2026-09-05 20:52:29 213 307 19454 141 -12 ENROUTE
2026-09-05 20:52:59 213 306 19455 143 -12 ENROUTE
2026-09-05 20:53:29 213 307 19455 144 -12 ENROUTE
2026-09-05 20:53:59 213 307 19456 146 -12 ENROUTE
2026-09-05 20:54:29 213 307 19455 148 -12 ENROUTE
2026-09-05 20:54:59 213 307 19455 149 -12 ENROUTE
2026-09-05 20:55:29 213 307 19455 151 -12 ENROUTE
2026-09-05 20:55:59 213 307 19454 152 -12 ENROUTE
2026-09-05 20:56:29 213 307 19455 154 -12 ENROUTE
2026-09-05 20:56:59 213 309 19452 155 -12 ENROUTE
2026-09-05 20:57:29 213 308 19445 157 -12 ENROUTE
2026-09-05 20:57:59 213 308 19445 158 -12 ENROUTE
2026-09-05 20:58:29 213 308 19446 160 -12 ENROUTE
2026-09-05 20:58:59 213 308 19445 162 -12 ENROUTE
2026-09-05 20:59:29 213 308 19444 163 -12 ENROUTE
2026-09-05 20:59:59 213 307 19445 165 -12 ENROUTE
2026-09-05 21:00:29 213 308 19430 166 -12 ENROUTE
2026-09-05 21:00:59 213 307 19430 168 -12 ENROUTE
2026-09-05 21:01:29 213 307 19429 169 -12 ENROUTE
2026-09-05 21:01:59 213 307 19427 171 -12 ENROUTE
2026-09-05 21:02:29 213 307 19427 172 -12 ENROUTE
2026-09-05 21:02:59 213 307 19427 174 -12 ENROUTE
2026-09-05 21:03:29 213 307 19427 175 -12 ENROUTE
2026-09-05 21:03:59 213 307 19415 177 -13 ENROUTE
2026-09-05 21:04:29 213 307 19415 179 -13 ENROUTE
2026-09-05 21:04:59 213 307 19415 180 -13 ENROUTE
2026-09-05 21:05:29 213 307 19415 182 -13 ENROUTE
2026-09-05 21:05:59 213 307 19415 183 -13 ENROUTE
2026-09-05 21:06:29 213 307 19414 185 -13 ENROUTE
2026-09-05 21:06:59 213 307 19414 186 -13 ENROUTE
2026-09-05 21:07:29 214 307 19401 188 -13 ENROUTE
2026-09-05 21:07:59 213 307 19400 189 -13 ENROUTE
2026-09-05 21:08:29 213 307 19400 191 -13 ENROUTE
2026-09-05 21:08:59 213 307 19399 193 -13 ENROUTE
2026-09-05 21:09:29 213 307 19400 194 -13 ENROUTE
2026-09-05 21:09:59 213 307 19399 196 -13 ENROUTE
2026-09-05 21:10:29 215 307 19396 197 -13 ENROUTE
2026-09-05 21:10:59 214 306 19390 199 -13 ENROUTE
2026-09-05 21:11:29 214 306 19388 200 -13 ENROUTE
2026-09-05 21:11:59 213 306 19387 202 -13 ENROUTE
2026-09-05 21:12:29 213 305 19387 203 -13 ENROUTE
2026-09-05 21:12:59 213 305 19387 205 -13 ENROUTE
2026-09-05 21:13:29 213 306 19387 207 -13 ENROUTE
2026-09-05 21:13:59 215 306 19378 208 -14 ENROUTE
2026-09-05 21:14:29 214 305 19375 210 -14 ENROUTE
2026-09-05 21:14:59 214 304 19375 211 -14 ENROUTE
2026-09-05 21:15:29 213 304 19374 213 -14 ENROUTE
2026-09-05 21:15:59 213 304 19374 214 -14 ENROUTE
2026-09-05 21:16:29 213 304 19374 216 -14 ENROUTE
2026-09-05 21:16:59 230 322 18723 217 -12 DESCENT
2026-09-05 21:17:29 237 321 17489 219 -10 DESCENT
2026-09-05 21:17:59 236 312 16244 220 -7 DESCENT
2026-09-05 21:18:29 235 304 15000 221 -4 DESCENT
2026-09-05 21:18:59 234 297 13751 222 -1 DESCENT
2026-09-05 21:19:29 234 289 12506 224 0 DESCENT
2026-09-05 21:19:59 233 283 11261 225 2 DESCENT
2026-09-05 21:20:29 232 276 10016 226 4 DESCENT
2026-09-05 21:20:59 232 270 8773 227 5 DESCENT
2026-09-05 21:21:29 231 263 7526 229 5 DESCENT
2026-09-05 21:21:59 231 257 6282 230 6 DESCENT
2026-09-05 21:22:29 214 234 5036 231 9 DESCENT
2026-09-05 21:22:59 204 221 3788 232 12 DESCENT
2026-09-05 21:23:29 191 199 2794 233 15 DESCENT
2026-09-05 21:23:59 162 169 2791 234 15 DESCENT
2026-09-05 21:24:29 142 146 2780 236 15 DESCENT
2026-09-05 21:24:59 137 137 2774 237 15 DESCENT
2026-09-05 21:25:29 129 126 2781 238 15 DESCENT
2026-09-05 21:25:59 103 101 2372 239 16 APPROACH
2026-09-05 21:26:29 104 101 1860 240 18 ON FINAL
2026-09-05 21:26:59 102 103 1731 241 19 ON FINAL
2026-09-05 21:27:29 109 106 1436 242 20 ON FINAL
2026-09-05 21:27:59 104 105 1172 243 21 ON FINAL
2026-09-05 21:28:29 68 65 968 244 21 ON FINAL
2026-09-05 21:28:59 18 23 969 245 21 TAXI TO APRON
2026-09-05 21:29:29 11 14 969 246 21 TAXI TO APRON
2026-09-05 21:29:59 2 0 969 246 21 TAXI TO APRON
2026-09-05 21:30:29 3 0 969 247 21 TAXI TO APRON
2026-09-05 21:30:59 4 0 969 247 21 TAXI TO APRON
2026-09-05 21:31:29 3 0 969 247 21 TAXI TO APRON
2026-09-05 21:31:59 2 0 969 247 21 TAXI TO APRON
2026-09-05 21:32:29 3 0 969 247 21 TAXI TO APRON
  • Join our VA!

    It has been 11 years of great learning, friendships, and stories.

  • Sign up now!